createdAt,value
2024-02-13T00:00:58.932Z,1.80
2024-02-13T00:03:03.820Z,2.00
2024-02-13T00:05:09.825Z,1.90
2024-02-13T00:07:15.089Z,1.90
2024-02-13T00:09:19.864Z,1.80
2024-02-13T00:11:24.570Z,1.70
2024-02-13T00:13:29.235Z,1.80
2024-02-13T00:15:34.110Z,1.80
2024-02-13T00:17:38.830Z,1.70
2024-02-13T00:19:43.960Z,2.10
2024-02-13T00:21:48.756Z,1.80
2024-02-13T00:23:53.572Z,1.90
2024-02-13T00:25:58.267Z,1.80
2024-02-13T00:28:03.056Z,1.90
2024-02-13T00:30:09.320Z,2.20
2024-02-13T00:32:13.990Z,2.00
2024-02-13T00:34:18.672Z,2.30
2024-02-13T00:36:23.273Z,1.80
2024-02-13T00:38:28.107Z,2.20
2024-02-13T00:40:33.227Z,2.10
2024-02-13T00:42:38.445Z,2.10
2024-02-13T00:44:44.971Z,2.00
2024-02-13T00:46:50.044Z,2.00
2024-02-13T00:48:55.595Z,2.40
2024-02-13T00:51:00.394Z,2.00
2024-02-13T00:53:05.218Z,2.10
2024-02-13T00:55:10.507Z,2.10
2024-02-13T00:57:15.224Z,2.10
2024-02-13T00:59:19.989Z,2.20
2024-02-13T01:01:24.746Z,2.40
2024-02-13T01:03:29.429Z,2.30
2024-02-13T01:05:34.154Z,2.60
2024-02-13T01:07:38.901Z,3.10
2024-02-13T01:09:43.550Z,2.60
2024-02-13T01:11:48.783Z,2.30
2024-02-13T01:13:53.550Z,2.60
2024-02-13T01:15:58.446Z,2.40
2024-02-13T01:18:03.183Z,2.40
2024-02-13T01:20:10.459Z,2.50
2024-02-13T01:22:15.232Z,2.70
2024-02-13T01:24:19.977Z,2.60
2024-02-13T01:26:24.749Z,2.70
2024-02-13T01:28:29.355Z,2.60
2024-02-13T01:30:34.019Z,2.60
2024-02-13T01:32:38.678Z,2.40
2024-02-13T01:34:43.971Z,2.60
2024-02-13T01:36:48.764Z,2.70
2024-02-13T01:38:53.464Z,2.50
2024-02-13T01:40:58.337Z,2.60
2024-02-13T01:43:03.106Z,2.60
2024-02-13T01:45:10.148Z,2.60
2024-02-13T01:47:15.121Z,2.60
2024-02-13T01:49:20.367Z,2.80
2024-02-13T01:51:28.660Z,2.60
2024-02-13T01:53:34.692Z,2.50
2024-02-13T01:55:40.200Z,2.30
2024-02-13T01:57:45.530Z,2.70
2024-02-13T01:59:50.469Z,2.60
2024-02-13T02:01:55.716Z,2.70
2024-02-13T02:04:03.461Z,2.70
2024-02-13T02:06:08.645Z,2.70
2024-02-13T02:08:13.487Z,2.30
2024-02-13T02:10:18.413Z,2.90
2024-02-13T02:12:23.238Z,2.80
2024-02-13T02:14:27.978Z,3.40
2024-02-13T02:16:32.671Z,3.20
2024-02-13T02:18:37.749Z,2.90
2024-02-13T02:20:42.567Z,3.20
2024-02-13T02:22:47.444Z,3.10
2024-02-13T02:24:52.069Z,3.10
2024-02-13T02:26:56.749Z,2.90
2024-02-13T02:29:01.396Z,3.00
2024-02-13T02:31:06.479Z,2.90
2024-02-13T02:33:12.650Z,2.90
2024-02-13T02:35:17.750Z,3.30
2024-02-13T02:37:22.489Z,2.70
2024-02-13T02:39:30.165Z,2.80
2024-02-13T02:41:34.790Z,3.10
2024-02-13T02:43:42.407Z,3.30
2024-02-13T02:45:47.545Z,2.80
2024-02-13T02:47:52.316Z,3.10
2024-02-13T02:49:56.940Z,2.80
2024-02-13T02:52:01.677Z,3.10
2024-02-13T02:54:07.117Z,3.20
2024-02-13T02:56:12.725Z,3.50
2024-02-13T02:58:17.393Z,3.00
2024-02-13T03:00:23.013Z,2.90
2024-02-13T03:02:27.719Z,3.10
2024-02-13T03:04:32.413Z,3.20
2024-02-13T03:06:37.147Z,3.20
2024-02-13T03:08:41.884Z,3.30
2024-02-13T03:10:46.570Z,3.20
2024-02-13T03:12:51.431Z,3.30
2024-02-13T03:14:56.136Z,3.20
2024-02-13T03:17:00.847Z,3.20
2024-02-13T03:19:06.134Z,3.30
2024-02-13T03:21:10.930Z,3.10
2024-02-13T03:23:15.563Z,3.30
2024-02-13T03:25:20.253Z,3.40
2024-02-13T03:27:24.950Z,3.30
2024-02-13T03:29:29.586Z,3.40
2024-02-13T03:31:34.314Z,3.10
2024-02-13T03:33:41.821Z,3.40
2024-02-13T03:35:47.472Z,3.80
2024-02-13T03:37:52.196Z,3.80
2024-02-13T03:39:56.812Z,3.40
2024-02-13T03:42:01.618Z,3.60
2024-02-13T03:44:06.351Z,3.40
2024-02-13T03:46:11.107Z,3.60
2024-02-13T03:48:16.422Z,3.40
2024-02-13T03:50:21.351Z,3.80
2024-02-13T03:52:26.070Z,3.40
2024-02-13T03:54:30.774Z,3.50
2024-02-13T03:56:35.568Z,3.70
2024-02-13T03:58:40.769Z,3.40
2024-02-13T04:00:45.473Z,3.50
2024-02-13T04:02:50.227Z,3.60
2024-02-13T04:04:54.870Z,3.50
2024-02-13T04:06:59.501Z,3.50
2024-02-13T04:09:04.503Z,3.60
2024-02-13T04:11:09.385Z,3.80
2024-02-13T04:13:14.081Z,3.50
2024-02-13T04:15:18.753Z,3.80
2024-02-13T04:17:23.406Z,3.50
2024-02-13T04:19:28.079Z,3.90
2024-02-13T04:21:32.741Z,3.60
2024-02-13T04:23:37.542Z,3.70
2024-02-13T04:25:42.214Z,4.00
2024-02-13T04:27:47.011Z,4.10
2024-02-13T04:29:51.642Z,4.20
2024-02-13T04:31:56.415Z,4.30
2024-02-13T04:34:01.314Z,4.10
2024-02-13T04:36:07.132Z,4.30
2024-02-13T04:38:11.960Z,4.60
2024-02-13T04:40:16.691Z,4.10
2024-02-13T04:42:33.173Z,3.90
2024-02-13T04:44:37.862Z,4.50
2024-02-13T04:46:42.587Z,4.40
2024-02-13T04:48:47.300Z,4.50
2024-02-13T04:50:52.020Z,4.10
2024-02-13T04:52:56.696Z,4.30
2024-02-13T04:55:01.435Z,5.00
2024-02-13T04:57:06.503Z,5.10
2024-02-13T04:59:11.248Z,4.90
2024-02-13T05:01:16.144Z,4.80
2024-02-13T05:03:22.176Z,5.00
2024-02-13T05:05:28.397Z,5.20
2024-02-13T05:07:33.207Z,4.60
2024-02-13T05:09:40.244Z,5.20
2024-02-13T05:11:44.913Z,4.80
2024-02-13T05:13:49.579Z,4.90
2024-02-13T05:15:54.250Z,4.50
2024-02-13T05:17:58.972Z,4.50
2024-02-13T05:20:03.996Z,4.70
2024-02-13T05:22:08.683Z,4.70
2024-02-13T05:24:13.352Z,4.80
2024-02-13T05:26:18.362Z,5.20
2024-02-13T05:28:23.048Z,5.10
2024-02-13T05:30:27.660Z,4.50
2024-02-13T05:32:32.422Z,4.90
2024-02-13T05:34:37.793Z,4.40
2024-02-13T05:36:42.425Z,4.60
2024-02-13T05:38:47.332Z,5.20
2024-02-13T05:40:52.034Z,4.60
2024-02-13T05:42:56.694Z,4.70
2024-02-13T05:45:01.356Z,4.20
2024-02-13T05:47:06.414Z,4.60
2024-02-13T05:49:11.127Z,4.30
2024-02-13T05:51:15.781Z,4.60
2024-02-13T05:53:20.587Z,4.00
2024-02-13T05:55:25.241Z,4.30
2024-02-13T05:57:29.823Z,4.10
2024-02-13T05:59:34.464Z,4.00
2024-02-13T06:01:39.214Z,4.00
2024-02-13T06:03:43.894Z,4.30
2024-02-13T06:05:51.162Z,4.30
2024-02-13T06:07:56.821Z,3.90
2024-02-13T06:10:01.651Z,3.60
2024-02-13T06:12:07.648Z,4.20
2024-02-13T06:14:12.375Z,4.00
2024-02-13T06:16:17.262Z,4.00
2024-02-13T06:18:22.682Z,3.60
2024-02-13T06:20:27.521Z,4.70
2024-02-13T06:22:32.133Z,3.70
2024-02-13T06:24:36.826Z,3.60
2024-02-13T06:26:41.454Z,3.40
2024-02-13T06:28:46.106Z,3.20
2024-02-13T06:30:50.799Z,3.50
2024-02-13T06:32:55.573Z,3.00
2024-02-13T06:35:00.290Z,3.20
2024-02-13T06:37:05.160Z,3.00
2024-02-13T06:39:09.755Z,3.20
2024-02-13T06:41:14.394Z,3.50
2024-02-13T06:43:19.857Z,3.20
2024-02-13T06:45:24.486Z,3.20
2024-02-13T06:47:29.255Z,3.40
2024-02-13T06:49:34.197Z,2.90
2024-02-13T06:51:38.891Z,3.80
2024-02-13T06:53:43.717Z,3.70
2024-02-13T06:55:48.466Z,3.30
2024-02-13T06:57:53.206Z,3.60
2024-02-13T06:59:57.985Z,3.30
2024-02-13T07:02:02.723Z,3.90
2024-02-13T07:04:07.553Z,3.50
2024-02-13T07:06:12.397Z,3.80
2024-02-13T07:08:17.300Z,3.10
2024-02-13T07:10:22.386Z,3.40
2024-02-13T07:12:27.140Z,3.20
2024-02-13T07:14:31.839Z,3.00
2024-02-13T07:16:41.027Z,2.70
2024-02-13T07:18:46.283Z,2.70
2024-02-13T07:20:51.706Z,2.60
2024-02-13T07:22:56.478Z,2.30
2024-02-13T07:25:01.324Z,2.40
2024-02-13T07:27:06.886Z,2.20
2024-02-13T07:29:11.701Z,2.20
2024-02-13T07:31:16.790Z,2.20
2024-02-13T07:33:21.617Z,2.10
2024-02-13T07:35:26.506Z,2.10
2024-02-13T07:37:31.203Z,2.00
2024-02-13T07:39:36.021Z,2.00
2024-02-13T07:41:40.765Z,2.00
2024-02-13T07:43:45.565Z,1.90
2024-02-13T07:45:50.313Z,2.20
2024-02-13T07:47:55.439Z,2.20
2024-02-13T07:50:03.169Z,2.00
2024-02-13T07:52:08.249Z,1.90
2024-02-13T07:54:13.093Z,1.90
2024-02-13T07:56:18.286Z,2.00
2024-02-13T07:58:23.561Z,2.20
2024-02-13T08:00:28.449Z,2.10
2024-02-13T08:02:33.590Z,2.10
2024-02-13T08:04:38.508Z,2.40
2024-02-13T08:06:43.437Z,2.20
2024-02-13T08:08:48.780Z,2.50
2024-02-13T08:10:53.813Z,2.50
2024-02-13T08:12:58.532Z,2.30
2024-02-13T08:15:03.484Z,2.40
2024-02-13T08:17:08.278Z,2.90
2024-02-13T08:19:13.310Z,2.70
2024-02-13T08:21:18.416Z,3.00
2024-02-13T08:23:23.449Z,2.50
2024-02-13T08:25:28.470Z,2.40
2024-02-13T08:27:33.556Z,3.10
2024-02-13T08:29:38.367Z,2.80
2024-02-13T08:31:43.108Z,3.00
2024-02-13T08:33:49.414Z,2.90
2024-02-13T08:35:54.400Z,3.20
2024-02-13T08:37:59.372Z,2.90
2024-02-13T08:40:08.772Z,3.30
2024-02-13T08:42:13.886Z,3.50
2024-02-13T08:44:18.762Z,3.10
2024-02-13T08:46:23.648Z,2.80
2024-02-13T08:48:28.639Z,3.10
2024-02-13T08:50:34.088Z,3.10
2024-02-13T08:52:39.100Z,3.40
2024-02-13T08:54:52.964Z,3.00
2024-02-13T08:57:01.081Z,2.90
2024-02-13T08:59:06.070Z,3.20
2024-02-13T09:01:11.246Z,3.10
2024-02-13T09:03:17.164Z,3.20
2024-02-13T09:05:22.469Z,3.10
2024-02-13T09:07:27.519Z,3.20
2024-02-13T09:09:33.201Z,3.00
2024-02-13T09:11:37.944Z,2.80
2024-02-13T09:13:42.771Z,2.70
2024-02-13T09:15:48.388Z,2.90
2024-02-13T09:17:53.747Z,2.80
2024-02-13T09:19:58.934Z,2.60
2024-02-13T09:22:03.901Z,2.60
2024-02-13T09:24:09.632Z,2.70
2024-02-13T09:26:14.572Z,2.20
2024-02-13T09:28:20.097Z,2.90
2024-02-13T09:30:25.078Z,2.80
2024-02-13T09:32:29.959Z,2.50
2024-02-13T09:34:35.172Z,2.20
2024-02-13T09:36:40.607Z,2.40
2024-02-13T09:38:45.696Z,2.40
2024-02-13T09:40:50.618Z,2.70
2024-02-13T09:42:55.529Z,2.30
2024-02-13T09:45:00.938Z,2.30
2024-02-13T09:47:07.229Z,2.10
2024-02-13T09:49:15.896Z,2.30
2024-02-13T09:51:22.095Z,2.00
2024-02-13T09:53:29.158Z,2.10
2024-02-13T09:55:34.898Z,2.20
2024-02-13T09:57:41.852Z,2.00
2024-02-13T09:59:46.905Z,2.20
2024-02-13T10:01:51.846Z,2.60
2024-02-13T10:03:56.792Z,2.50
2024-02-13T10:06:02.026Z,2.50
2024-02-13T10:08:07.685Z,2.30
2024-02-13T10:10:13.489Z,2.40
2024-02-13T10:12:19.737Z,2.30
2024-02-13T10:14:24.801Z,2.20
2024-02-13T10:16:30.418Z,2.30
2024-02-13T10:18:35.390Z,2.40
2024-02-13T10:20:40.744Z,2.30
2024-02-13T10:22:49.109Z,2.20
2024-02-13T10:24:56.416Z,2.40
2024-02-13T10:27:01.653Z,2.00
2024-02-13T10:29:06.866Z,2.00
2024-02-13T10:31:11.996Z,2.60
2024-02-13T10:33:17.144Z,2.40
2024-02-13T10:35:24.085Z,2.20
2024-02-13T10:37:30.309Z,2.50
2024-02-13T10:39:36.920Z,2.20
2024-02-13T10:41:45.500Z,2.40
2024-02-13T10:43:53.867Z,2.50
2024-02-13T10:45:59.825Z,2.80
2024-02-13T10:48:12.653Z,2.80
2024-02-13T10:50:18.611Z,2.70
2024-02-13T10:52:24.609Z,2.60
2024-02-13T10:54:30.552Z,2.90
2024-02-13T10:56:38.096Z,3.00
2024-02-13T10:58:44.423Z,2.50
2024-02-13T11:00:50.745Z,2.50
2024-02-13T11:02:56.316Z,2.60
2024-02-13T11:05:03.995Z,2.80
2024-02-13T11:07:10.356Z,2.60
2024-02-13T11:09:15.448Z,2.80
2024-02-13T11:11:23.888Z,2.50
2024-02-13T11:13:29.087Z,2.70
2024-02-13T11:15:34.170Z,3.00
2024-02-13T11:17:47.387Z,2.60
2024-02-13T11:19:57.522Z,2.70
2024-02-13T11:22:02.812Z,2.10
2024-02-13T11:24:08.562Z,2.60
2024-02-13T11:26:19.638Z,2.40
2024-02-13T11:28:24.663Z,3.00
2024-02-13T11:30:30.825Z,2.50
2024-02-13T11:32:37.801Z,2.30
2024-02-13T11:34:44.025Z,2.70
2024-02-13T11:36:50.380Z,2.30
2024-02-13T11:38:56.019Z,2.30
2024-02-13T11:41:00.824Z,2.20
2024-02-13T11:43:05.999Z,2.00
2024-02-13T11:45:21.639Z,2.20
2024-02-13T11:47:27.185Z,2.10
2024-02-13T11:49:32.793Z,1.80
2024-02-13T11:51:38.707Z,2.10
2024-02-13T11:53:44.130Z,1.80
2024-02-13T11:55:49.250Z,1.80
2024-02-13T11:57:54.204Z,1.60
2024-02-13T12:00:00.220Z,1.60
2024-02-13T12:02:10.248Z,1.60
2024-02-13T12:04:16.548Z,1.90
2024-02-13T12:06:21.530Z,1.90
2024-02-13T12:08:29.730Z,2.00
2024-02-13T12:10:35.473Z,1.80
2024-02-13T12:12:40.631Z,1.60
2024-02-13T12:14:46.021Z,1.70
2024-02-13T12:16:51.267Z,1.70
2024-02-13T12:18:59.796Z,1.60
2024-02-13T12:21:05.184Z,1.80
2024-02-13T12:23:11.030Z,1.70
2024-02-13T12:25:19.668Z,1.50
2024-02-13T12:27:24.728Z,1.60
2024-02-13T12:29:29.678Z,1.80
2024-02-13T12:31:34.586Z,1.80
2024-02-13T12:33:39.802Z,1.90
2024-02-13T12:35:44.648Z,1.30
2024-02-13T12:37:50.590Z,1.30
2024-02-13T12:39:55.428Z,1.80
2024-02-13T12:42:00.264Z,1.60
2024-02-13T12:44:05.739Z,1.60
2024-02-13T12:46:10.738Z,1.70
2024-02-13T12:48:15.982Z,1.50
2024-02-13T12:50:21.383Z,1.40
2024-02-13T12:52:26.498Z,1.40
2024-02-13T12:54:33.728Z,1.70
2024-02-13T12:56:39.298Z,1.20
2024-02-13T12:58:44.302Z,1.30
2024-02-13T13:00:49.799Z,1.30
2024-02-13T13:02:55.007Z,1.70
2024-02-13T13:05:00.010Z,1.40
2024-02-13T13:07:05.462Z,1.10
2024-02-13T13:09:20.193Z,1.30
2024-02-13T13:11:31.592Z,1.50
2024-02-13T13:13:36.788Z,1.50
2024-02-13T13:15:42.175Z,1.30
2024-02-13T13:17:47.389Z,1.30
2024-02-13T13:19:53.146Z,1.10
2024-02-13T13:21:58.573Z,1.30
2024-02-13T13:24:03.905Z,1.20
2024-02-13T13:26:09.138Z,1.10
2024-02-13T13:28:14.586Z,1.10
2024-02-13T13:30:21.662Z,1.10
2024-02-13T13:32:26.926Z,1.30
2024-02-13T13:34:31.982Z,1.30
2024-02-13T13:36:39.264Z,1.40
2024-02-13T13:38:44.394Z,1.10
2024-02-13T13:40:49.765Z,1.20
2024-02-13T13:42:54.907Z,1.20
2024-02-13T13:45:00.004Z,1.10
2024-02-13T13:47:05.791Z,1.30
2024-02-13T13:49:10.924Z,1.00
2024-02-13T13:51:15.967Z,1.00
2024-02-13T13:53:21.517Z,1.00
2024-02-13T13:55:26.681Z,1.10
2024-02-13T13:57:31.756Z,1.20
2024-02-13T13:59:39.721Z,1.00
2024-02-13T14:01:44.736Z,1.10
2024-02-13T14:03:50.096Z,1.20
2024-02-13T14:05:55.244Z,0.90
2024-02-13T14:08:00.676Z,1.10
2024-02-13T14:10:06.561Z,1.00
2024-02-13T14:12:11.606Z,0.80
2024-02-13T14:14:22.303Z,1.20
2024-02-13T14:16:27.221Z,0.90
2024-02-13T14:18:34.289Z,1.00
2024-02-13T14:20:39.672Z,0.90
2024-02-13T14:22:46.291Z,1.10
2024-02-13T14:24:51.268Z,1.00
2024-02-13T14:26:56.265Z,1.00
2024-02-13T14:29:01.340Z,1.10
2024-02-13T14:31:06.717Z,0.90
2024-02-13T14:33:12.741Z,1.00
2024-02-13T14:35:18.267Z,1.20
2024-02-13T14:37:23.409Z,0.90
2024-02-13T14:39:28.585Z,1.00
2024-02-13T14:41:33.817Z,0.90
2024-02-13T14:43:38.817Z,0.90
2024-02-13T14:45:43.888Z,1.10
2024-02-13T14:47:49.224Z,1.00
2024-02-13T14:49:54.871Z,1.00
2024-02-13T14:52:00.246Z,1.10
2024-02-13T14:54:05.981Z,1.00
2024-02-13T14:56:10.970Z,0.90
2024-02-13T14:58:22.917Z,1.20
2024-02-13T15:00:35.957Z,1.10
2024-02-13T15:02:41.352Z,1.00
2024-02-13T15:04:46.736Z,0.90
2024-02-13T15:06:51.794Z,1.00
2024-02-13T15:08:56.730Z,0.90
2024-02-13T15:11:01.855Z,0.90
2024-02-13T15:13:07.059Z,1.10
2024-02-13T15:15:12.488Z,1.10
2024-02-13T15:17:17.522Z,1.10
2024-02-13T15:19:22.633Z,1.00
2024-02-13T15:21:27.798Z,0.90
2024-02-13T15:23:33.091Z,1.10
2024-02-13T15:25:37.938Z,1.00
2024-02-13T15:27:43.155Z,1.00
2024-02-13T15:29:48.177Z,0.80
2024-02-13T15:31:53.174Z,1.00
2024-02-13T15:33:58.632Z,1.00
2024-02-13T15:36:04.519Z,0.80
2024-02-13T15:38:09.780Z,1.10
2024-02-13T15:40:15.871Z,1.20
2024-02-13T15:42:21.313Z,0.90
2024-02-13T15:44:26.300Z,1.00
2024-02-13T15:46:31.769Z,1.00
2024-02-13T15:48:36.739Z,1.10
2024-02-13T15:50:41.870Z,1.20
2024-02-13T15:52:46.881Z,1.10
2024-02-13T15:54:51.872Z,1.30
2024-02-13T15:56:56.941Z,1.10
2024-02-13T15:59:01.926Z,1.20
2024-02-13T16:01:06.818Z,1.20
2024-02-13T16:03:11.572Z,1.10
2024-02-13T16:05:16.412Z,1.00
2024-02-13T16:07:21.627Z,1.10
2024-02-13T16:09:26.842Z,1.10
2024-02-13T16:11:31.843Z,1.20
2024-02-13T16:13:36.757Z,1.10
2024-02-13T16:15:41.555Z,1.20
2024-02-13T16:17:46.712Z,1.20
2024-02-13T16:19:51.822Z,1.30
2024-02-13T16:21:56.568Z,1.30
2024-02-13T16:24:02.285Z,1.30
2024-02-13T16:26:07.504Z,1.30
2024-02-13T16:28:12.385Z,1.60
2024-02-13T16:30:18.683Z,1.40
2024-02-13T16:32:32.867Z,1.50
2024-02-13T16:34:44.276Z,1.30
2024-02-13T16:36:49.116Z,1.40
2024-02-13T16:38:54.166Z,1.40
2024-02-13T16:40:59.189Z,1.30
2024-02-13T16:43:05.372Z,1.40
2024-02-13T16:45:11.036Z,1.30
2024-02-13T16:47:15.963Z,1.30
2024-02-13T16:49:21.124Z,1.20
2024-02-13T16:51:25.993Z,1.30
2024-02-13T16:53:30.670Z,1.50
2024-02-13T16:55:35.438Z,1.30
2024-02-13T16:57:40.170Z,1.50
2024-02-13T16:59:45.843Z,1.20
2024-02-13T17:01:53.270Z,1.40
2024-02-13T17:03:58.100Z,1.60
2024-02-13T17:06:03.035Z,1.70
2024-02-13T17:08:08.856Z,1.60
2024-02-13T17:10:14.258Z,1.50
2024-02-13T17:12:19.032Z,1.60
2024-02-13T17:14:23.801Z,1.60
2024-02-13T17:16:28.554Z,1.40
2024-02-13T17:18:33.479Z,1.90
2024-02-13T17:20:38.381Z,2.00
2024-02-13T17:22:43.538Z,2.00
2024-02-13T17:24:48.501Z,2.40
2024-02-13T17:26:53.257Z,1.90
2024-02-13T17:28:57.950Z,1.80
2024-02-13T17:31:02.698Z,1.70
2024-02-13T17:33:07.701Z,1.60
2024-02-13T17:35:12.994Z,1.80
2024-02-13T17:37:17.752Z,1.50
2024-02-13T17:39:22.729Z,1.80
2024-02-13T17:41:27.453Z,1.80
2024-02-13T17:43:32.229Z,1.90
2024-02-13T17:45:37.100Z,1.90
2024-02-13T17:47:41.963Z,1.70
2024-02-13T17:49:46.822Z,1.50
2024-02-13T17:51:51.560Z,1.80
2024-02-13T17:53:56.467Z,1.70
2024-02-13T17:56:01.308Z,1.60
2024-02-13T17:58:06.354Z,1.80
2024-02-13T18:00:14.067Z,1.60
2024-02-13T18:02:18.744Z,1.90
2024-02-13T18:04:26.645Z,1.90
2024-02-13T18:06:31.483Z,2.00
2024-02-13T18:08:36.491Z,2.10
2024-02-13T18:10:41.536Z,1.80
2024-02-13T18:12:46.393Z,1.90
2024-02-13T18:14:51.205Z,1.80
2024-02-13T18:16:55.929Z,2.10
2024-02-13T18:19:00.905Z,1.80
2024-02-13T18:21:06.355Z,2.00
2024-02-13T18:23:11.344Z,1.60
2024-02-13T18:25:16.302Z,2.00
2024-02-13T18:27:21.181Z,1.90
2024-02-13T18:29:25.919Z,2.30
2024-02-13T18:31:31.046Z,2.10
2024-02-13T18:33:35.919Z,2.20
2024-02-13T18:35:41.512Z,2.50
2024-02-13T18:37:46.311Z,3.40
2024-02-13T18:39:51.135Z,3.00
2024-02-13T18:41:55.980Z,2.40
2024-02-13T18:44:00.721Z,3.90
2024-02-13T18:46:05.626Z,3.60
2024-02-13T18:48:11.122Z,4.50
2024-02-13T18:50:16.204Z,3.90
2024-02-13T18:52:21.003Z,3.70
2024-02-13T18:54:25.739Z,3.10
2024-02-13T18:56:32.472Z,4.10
2024-02-13T18:58:40.164Z,4.10
2024-02-13T19:00:44.924Z,2.70
2024-02-13T19:02:49.804Z,4.00
2024-02-13T19:04:54.547Z,2.90
2024-02-13T19:06:59.378Z,3.10
2024-02-13T19:09:04.470Z,2.90
2024-02-13T19:11:09.293Z,2.50
2024-02-13T19:13:14.147Z,2.50
2024-02-13T19:15:18.927Z,2.70
2024-02-13T19:17:23.702Z,2.60
2024-02-13T19:19:28.559Z,2.50
2024-02-13T19:21:33.432Z,2.40
2024-02-13T19:23:38.133Z,2.00
2024-02-13T19:25:42.839Z,1.90
2024-02-13T19:27:47.499Z,2.10
2024-02-13T19:29:52.615Z,2.50
2024-02-13T19:31:57.326Z,2.00
2024-02-13T19:34:02.335Z,2.30
2024-02-13T19:36:08.102Z,2.30
2024-02-13T19:38:12.972Z,2.30
2024-02-13T19:40:18.416Z,2.20
2024-02-13T19:42:23.151Z,2.30
2024-02-13T19:44:27.983Z,2.20
2024-02-13T19:46:32.672Z,2.20
2024-02-13T19:48:37.605Z,2.30
2024-02-13T19:50:42.516Z,2.10
2024-02-13T19:52:47.441Z,2.30
2024-02-13T19:54:52.285Z,2.30
2024-02-13T19:56:59.964Z,2.30
2024-02-13T19:59:05.953Z,3.00
2024-02-13T20:01:12.110Z,2.60
2024-02-13T20:03:17.082Z,2.40
2024-02-13T20:05:22.273Z,2.30
2024-02-13T20:07:27.062Z,2.40
2024-02-13T20:09:31.782Z,2.60
2024-02-13T20:11:36.658Z,2.30
2024-02-13T20:13:41.392Z,2.30
2024-02-13T20:15:46.091Z,2.20
2024-02-13T20:17:51.137Z,2.30
2024-02-13T20:19:56.051Z,2.50
2024-02-13T20:22:00.895Z,2.50
2024-02-13T20:24:06.259Z,2.40
2024-02-13T20:26:11.287Z,2.40
2024-02-13T20:28:16.374Z,2.40
2024-02-13T20:30:21.310Z,2.40
2024-02-13T20:32:26.106Z,2.20
2024-02-13T20:34:32.093Z,2.30
2024-02-13T20:36:36.805Z,2.60
2024-02-13T20:38:41.602Z,2.00
2024-02-13T20:40:46.383Z,2.40
2024-02-13T20:42:51.021Z,2.60
2024-02-13T20:45:01.294Z,1.90
2024-02-13T20:47:11.660Z,2.10
2024-02-13T20:49:16.468Z,2.20
2024-02-13T20:51:21.137Z,2.20
2024-02-13T20:53:25.917Z,2.10
2024-02-13T20:55:30.684Z,2.10
2024-02-13T20:57:35.478Z,2.10
2024-02-13T20:59:40.240Z,2.10
2024-02-13T21:01:44.930Z,2.10
2024-02-13T21:03:49.684Z,3.00
2024-02-13T21:05:54.627Z,2.30
2024-02-13T21:07:59.424Z,2.90
2024-02-13T21:10:04.590Z,2.50
2024-02-13T21:12:09.905Z,3.10
2024-02-13T21:14:14.698Z,3.60
2024-02-13T21:16:19.388Z,3.70
2024-02-13T21:18:24.411Z,3.80
2024-02-13T21:20:32.564Z,3.50
2024-02-13T21:22:37.395Z,3.50
2024-02-13T21:24:42.178Z,3.60
2024-02-13T21:26:46.933Z,3.50
2024-02-13T21:28:51.831Z,3.50
2024-02-13T21:30:56.547Z,4.00
2024-02-13T21:33:01.384Z,3.80
2024-02-13T21:35:07.134Z,3.80
2024-02-13T21:37:12.637Z,3.70
2024-02-13T21:39:17.331Z,3.30
2024-02-13T21:41:22.524Z,3.20
2024-02-13T21:43:27.246Z,3.60
2024-02-13T21:45:31.977Z,3.30
2024-02-13T21:47:36.654Z,3.80
2024-02-13T21:49:41.359Z,3.80
2024-02-13T21:51:46.025Z,4.10
2024-02-13T21:53:50.769Z,3.70
2024-02-13T21:55:55.419Z,3.60
2024-02-13T21:58:00.157Z,3.50
2024-02-13T22:00:06.412Z,3.40
2024-02-13T22:02:11.458Z,3.30
2024-02-13T22:04:19.261Z,3.50
2024-02-13T22:06:24.202Z,3.80
2024-02-13T22:08:28.903Z,3.60
2024-02-13T22:10:33.557Z,3.60
2024-02-13T22:12:38.346Z,3.20
2024-02-13T22:14:43.080Z,3.50
2024-02-13T22:16:47.726Z,3.70
2024-02-13T22:18:52.456Z,3.70
2024-02-13T22:20:57.326Z,3.40
2024-02-13T22:23:02.062Z,3.50
2024-02-13T22:25:07.609Z,3.30
2024-02-13T22:27:12.400Z,3.10
2024-02-13T22:29:17.576Z,3.60
2024-02-13T22:31:22.238Z,3.40
2024-02-13T22:33:27.127Z,3.40
2024-02-13T22:35:31.867Z,3.30
2024-02-13T22:37:36.518Z,3.20
2024-02-13T22:39:43.530Z,3.10
2024-02-13T22:41:49.531Z,3.00
2024-02-13T22:43:54.426Z,3.20
2024-02-13T22:45:59.157Z,3.30
2024-02-13T22:48:04.661Z,3.30
2024-02-13T22:50:10.957Z,2.90
2024-02-13T22:52:15.643Z,3.10
2024-02-13T22:54:20.975Z,3.20
2024-02-13T22:56:26.161Z,3.20
2024-02-13T22:58:31.101Z,3.30
2024-02-13T23:00:35.751Z,3.30
2024-02-13T23:02:43.170Z,2.60
2024-02-13T23:04:48.005Z,2.80
2024-02-13T23:06:52.684Z,3.10
2024-02-13T23:08:57.417Z,2.80
2024-02-13T23:11:02.097Z,3.10
2024-02-13T23:13:06.880Z,3.20
2024-02-13T23:15:12.723Z,2.90
2024-02-13T23:17:17.545Z,3.20
2024-02-13T23:19:22.367Z,3.00
2024-02-13T23:21:27.009Z,3.10
2024-02-13T23:23:31.679Z,2.60
2024-02-13T23:25:36.531Z,3.10
2024-02-13T23:27:41.182Z,3.10
2024-02-13T23:29:45.988Z,3.00
2024-02-13T23:31:50.722Z,2.90
2024-02-13T23:33:55.802Z,2.60
2024-02-13T23:36:00.774Z,2.90
2024-02-13T23:38:08.851Z,3.10
2024-02-13T23:40:18.091Z,2.90
2024-02-13T23:42:22.727Z,2.80
2024-02-13T23:44:27.392Z,2.70
2024-02-13T23:46:32.126Z,2.70
2024-02-13T23:48:36.935Z,2.70
2024-02-13T23:50:41.819Z,2.70
2024-02-13T23:52:46.719Z,2.40
2024-02-13T23:54:51.406Z,2.60
2024-02-13T23:56:56.266Z,2.40
2024-02-13T23:59:00.983Z,2.40
